Time;durP1;ratioP1;P1;durP2;ratioP2;P2;SDS_P1;SDS_P2;PMS_P1;PMS_P2;Temp;Humidity;BMP_temperature;BMP_pressure;BME280_temperature;BME280_humidity;BME280_pressure;Samples;Min_cycle;Max_cycle;Signal;HPM_P1;HPM_P2
2021/01/13 00:00:33;;;;;;;;;;;4.40;97.30;;;;;;4317157;33;43956;-45
2021/01/13 00:03:00;;;;;;;;;;;4.40;97.30;;;;;;4329866;33;44686;-45
2021/01/13 00:05:29;;;;;;;;;;;4.40;97.20;;;;;;4331781;33;29852;-45
2021/01/13 00:08:01;;;;;;;;;;;4.50;97.20;;;;;;4333345;33;43390;-45
2021/01/13 00:10:28;;;;;;;;;;;4.40;97.20;;;;;;4319986;33;31606;-45
2021/01/13 00:12:57;;;;;;;;;;;4.40;97.10;;;;;;4333371;33;43914;-45
2021/01/13 00:15:24;;;;;;;;;;;4.40;97.20;;;;;;4333280;33;43588;-45
2021/01/13 00:17:51;;;;;;;;;;;4.40;97.10;;;;;;4333090;33;43558;-45
2021/01/13 00:20:20;;;;;;;;;;;4.40;97.20;;;;;;4333210;33;42804;-45
2021/01/13 00:22:47;;;;;;;;;;;4.40;97.20;;;;;;4332969;33;44108;-45
2021/01/13 00:25:17;;;;;;;;;;;4.40;97.10;;;;;;4333261;33;29742;-45
2021/01/13 00:27:44;;;;;;;;;;;4.40;97.10;;;;;;4332887;33;42091;-45
2021/01/13 00:30:14;;;;;;;;;;;4.40;97.10;;;;;;4320010;33;44263;-45
2021/01/13 00:32:46;;;;;;;;;;;4.40;97.10;;;;;;4320275;33;30232;-45
2021/01/13 00:35:17;;;;;;;;;;;4.40;97.10;;;;;;4320935;33;20492;-45
2021/01/13 00:37:47;;;;;;;;;;;4.30;97.10;;;;;;4333055;33;44242;-45
2021/01/13 00:40:17;;;;;;;;;;;4.30;97.10;;;;;;4332690;33;43650;-45
2021/01/13 00:42:45;;;;;;;;;;;4.30;97.10;;;;;;4320698;33;19993;-45
2021/01/13 00:45:13;;;;;;;;;;;4.30;97.00;;;;;;4332851;33;43456;-45
2021/01/13 00:47:43;;;;;;;;;;;4.30;97.00;;;;;;4319611;33;43864;-45
2021/01/13 00:50:13;;;;;;;;;;;4.30;96.90;;;;;;4333870;33;20069;-46
2021/01/13 00:52:47;;;;;;;;;;;4.30;96.90;;;;;;4319508;33;30329;-45
2021/01/13 00:55:17;;;;;;;;;;;4.30;96.90;;;;;;4332525;33;42013;-45
2021/01/13 00:57:50;;;;;;;;;;;4.30;96.90;;;;;;4320782;33;20053;-46
2021/01/13 01:00:18;;;;;;;;;;;4.30;97.00;;;;;;4332023;33;31275;-45
2021/01/13 01:02:51;;;;;;;;;;;4.30;97.00;;;;;;4332333;33;43365;-45
2021/01/13 01:05:21;;;;;;;;;;;4.30;96.90;;;;;;4331597;33;43877;-45
2021/01/13 01:07:48;;;;;;;;;;;4.30;97.00;;;;;;4332533;33;44526;-45
2021/01/13 01:10:21;;;;;;;;;;;4.30;96.90;;;;;;4332458;33;44146;-46
2021/01/13 01:12:55;;;;;;;;;;;4.30;96.90;;;;;;4319645;33;42930;-45
2021/01/13 01:15:22;;;;;;;;;;;4.30;96.90;;;;;;4319900;33;30392;-45
2021/01/13 01:17:51;;;;;;;;;;;4.30;96.90;;;;;;4331732;33;30737;-45
2021/01/13 01:20:21;;;;;;;;;;;4.30;96.90;;;;;;4332422;33;43446;-45
2021/01/13 01:22:55;;;;;;;;;;;4.20;97.00;;;;;;4332511;33;20012;-45
2021/01/13 01:25:23;;;;;;;;;;;4.20;97.00;;;;;;4306950;33;30587;-45
2021/01/13 01:27:53;;;;;;;;;;;4.20;97.00;;;;;;4332434;33;43707;-45
2021/01/13 01:30:21;;;;;;;;;;;4.20;97.00;;;;;;4318972;33;33335;-45
2021/01/13 01:32:51;;;;;;;;;;;4.20;97.00;;;;;;4332191;33;42985;-45
2021/01/13 01:35:21;;;;;;;;;;;4.20;96.90;;;;;;4331807;33;20422;-45
2021/01/13 01:37:51;;;;;;;;;;;4.20;96.90;;;;;;4332594;33;30939;-45
2021/01/13 01:40:19;;;;;;;;;;;4.20;97.00;;;;;;4333143;33;20024;-45
2021/01/13 01:42:47;;;;;;;;;;;4.20;97.00;;;;;;4331832;33;42225;-45
2021/01/13 01:45:15;;;;;;;;;;;4.20;97.00;;;;;;4332358;33;31053;-45
2021/01/13 01:47:55;;;;;;;;;;;4.20;96.90;;;;;;4318764;33;42223;-45
2021/01/13 01:50:22;;;;;;;;;;;4.20;96.90;;;;;;4331991;33;42207;-45
2021/01/13 01:52:55;;;;;;;;;;;4.20;97.10;;;;;;4318423;33;44193;-45
2021/01/13 01:55:24;;;;;;;;;;;4.20;97.10;;;;;;4330777;33;30857;-45
2021/01/13 01:57:59;;;;;;;;;;;4.20;97.20;;;;;;4330921;33;44923;-45
2021/01/13 02:00:30;;;;;;;;;;;4.20;97.10;;;;;;4318807;33;30718;-45
2021/01/13 02:03:04;;;;;;;;;;;4.20;97.10;;;;;;4330431;33;43148;-46
2021/01/13 02:05:38;;;;;;;;;;;4.20;97.30;;;;;;4331931;33;43845;-45
2021/01/13 02:08:05;;;;;;;;;;;4.20;97.10;;;;;;4331834;33;44009;-45
2021/01/13 02:10:31;;;;;;;;;;;4.20;97.20;;;;;;4331334;33;43947;-45
2021/01/13 02:13:05;;;;;;;;;;;4.20;97.30;;;;;;4331557;33;43168;-45
2021/01/13 02:15:35;;;;;;;;;;;4.20;97.30;;;;;;4331614;33;44468;-45
2021/01/13 02:18:04;;;;;;;;;;;4.20;97.40;;;;;;4330169;33;43882;-45
2021/01/13 02:20:31;;;;;;;;;;;4.10;97.20;;;;;;4331512;33;43564;-45
2021/01/13 02:23:03;;;;;;;;;;;4.10;97.10;;;;;;4331473;33;43324;-45
2021/01/13 02:25:50;;;;;;;;;;;4.10;97.20;;;;;;4318423;33;43897;-45
2021/01/13 02:28:20;;;;;;;;;;;4.20;97.20;;;;;;4289036;33;31764;-46
2021/01/13 02:30:57;;;;;;;;;;;4.10;97.10;;;;;;4318496;33;29392;-45
2021/01/13 02:33:30;;;;;;;;;;;4.10;97.10;;;;;;4331475;33;42959;-46
2021/01/13 02:36:12;;;;;;;;;;;4.10;97.20;;;;;;4318168;33;30687;-46
2021/01/13 02:38:41;;;;;;;;;;;4.10;97.20;;;;;;4330498;33;43855;-47
2021/01/13 02:41:14;;;;;;;;;;;4.10;97.10;;;;;;4331537;33;43983;-48
2021/01/13 02:43:51;;;;;;;;;;;4.10;97.10;;;;;;4306302;33;31209;-46
2021/01/13 02:46:37;;;;;;;;;;;4.10;97.10;;;;;;4318605;33;29137;-46
2021/01/13 02:49:08;;;;;;;;;;;4.10;97.10;;;;;;4318016;33;32665;-45
2021/01/13 02:51:38;;;;;;;;;;;4.10;97.10;;;;;;4331339;33;44353;-47
2021/01/13 02:54:12;;;;;;;;;;;4.10;97.20;;;;;;4305846;33;30632;-47
2021/01/13 02:56:43;;;;;;;;;;;4.10;97.10;;;;;;4331763;33;29941;-45
2021/01/13 02:59:13;;;;;;;;;;;4.10;97.20;;;;;;4330914;33;43461;-45
2021/01/13 03:01:44;;;;;;;;;;;4.10;97.30;;;;;;4329918;33;30877;-49
2021/01/13 03:04:16;;;;;;;;;;;4.10;97.30;;;;;;4331426;33;31313;-45
2021/01/13 03:06:45;;;;;;;;;;;4.10;97.20;;;;;;4329964;33;43292;-45
2021/01/13 03:09:17;;;;;;;;;;;4.10;97.50;;;;;;4329962;33;31603;-45
2021/01/13 03:11:44;;;;;;;;;;;4.10;97.10;;;;;;4330903;33;44198;-45
2021/01/13 03:14:11;;;;;;;;;;;4.10;97.20;;;;;;4330442;33;42400;-47
2021/01/13 03:16:42;;;;;;;;;;;4.10;97.10;;;;;;4330603;33;42953;-46
2021/01/13 03:19:17;;;;;;;;;;;4.10;97.20;;;;;;4330859;33;43963;-47
2021/01/13 03:21:44;;;;;;;;;;;4.00;97.30;;;;;;4318200;33;28400;-45
2021/01/13 03:24:21;;;;;;;;;;;4.00;97.30;;;;;;4330298;33;43142;-45
2021/01/13 03:26:55;;;;;;;;;;;4.00;97.30;;;;;;4329592;33;43894;-49
2021/01/13 03:29:26;;;;;;;;;;;4.00;97.10;;;;;;4318373;33;20452;-45
2021/01/13 03:32:09;;;;;;;;;;;4.00;97.30;;;;;;4317473;33;44360;-45
2021/01/13 03:34:39;;;;;;;;;;;4.00;97.30;;;;;;4305607;33;31325;-45
2021/01/13 03:37:17;;;;;;;;;;;4.00;97.20;;;;;;4330661;33;43424;-45
2021/01/13 03:39:46;;;;;;;;;;;4.00;97.30;;;;;;4331629;33;20403;-45
2021/01/13 03:42:14;;;;;;;;;;;4.00;97.30;;;;;;4333555;33;44341;-45
2021/01/13 03:44:48;;;;;;;;;;;4.00;97.20;;;;;;4321356;33;33013;-45
2021/01/13 03:47:30;;;;;;;;;;;4.00;97.20;;;;;;4320564;33;32160;-45
2021/01/13 03:50:09;;;;;;;;;;;4.10;97.20;;;;;;4332995;33;43927;-45
2021/01/13 03:52:57;;;;;;;;;;;4.00;97.30;;;;;;4333599;33;43175;-45
2021/01/13 03:55:24;;;;;;;;;;;4.00;97.20;;;;;;4333931;33;31348;-45
2021/01/13 03:57:57;;;;;;;;;;;4.00;97.30;;;;;;4333481;33;43033;-47
2021/01/13 04:00:34;;;;;;;;;;;4.00;97.20;;;;;;4333223;33;42252;-45
2021/01/13 04:03:11;;;;;;;;;;;4.00;97.30;;;;;;4332181;33;43149;-45
2021/01/13 04:05:51;;;;;;;;;;;4.00;97.30;;;;;;4333495;33;41940;-45
2021/01/13 04:08:18;;;;;;;;;;;3.90;97.40;;;;;;4320247;33;44137;-45
2021/01/13 04:10:45;;;;;;;;;;;4.00;97.40;;;;;;4333030;33;42236;-45
2021/01/13 04:13:35;;;;;;;;;;;4.00;97.40;;;;;;4319984;33;30577;-45
2021/01/13 04:16:03;;;;;;;;;;;3.90;97.30;;;;;;4325638;33;44596;-45
2021/01/13 04:18:30;;;;;;;;;;;4.00;97.30;;;;;;4334351;33;20031;-45
2021/01/13 04:21:00;;;;;;;;;;;3.90;97.30;;;;;;4332792;33;42995;-45
2021/01/13 04:23:27;;;;;;;;;;;3.90;97.30;;;;;;4333424;33;42580;-45
2021/01/13 04:25:55;;;;;;;;;;;3.90;97.40;;;;;;4333401;33;43865;-45
2021/01/13 04:28:23;;;;;;;;;;;3.90;97.40;;;;;;4307986;33;33184;-46
2021/01/13 04:30:50;;;;;;;;;;;3.90;97.30;;;;;;4333423;33;30682;-45
2021/01/13 04:33:17;;;;;;;;;;;4.00;97.40;;;;;;4333005;33;43092;-45
2021/01/13 04:35:45;;;;;;;;;;;3.90;97.30;;;;;;4332574;33;43507;-45
2021/01/13 04:38:15;;;;;;;;;;;3.90;97.30;;;;;;4332667;33;43259;-46
2021/01/13 04:40:48;;;;;;;;;;;3.90;97.30;;;;;;4332713;33;43931;-45
2021/01/13 04:43:17;;;;;;;;;;;3.90;97.40;;;;;;4330743;33;30783;-45
2021/01/13 04:45:45;;;;;;;;;;;3.90;97.40;;;;;;4332806;33;43420;-45
2021/01/13 04:48:13;;;;;;;;;;;3.90;97.40;;;;;;4319368;33;42121;-45
2021/01/13 04:50:47;;;;;;;;;;;3.90;97.40;;;;;;4319479;33;29759;-45
2021/01/13 04:53:18;;;;;;;;;;;3.90;97.40;;;;;;4332850;33;41982;-45
2021/01/13 04:55:48;;;;;;;;;;;3.90;97.40;;;;;;4332737;33;43125;-45
2021/01/13 04:58:21;;;;;;;;;;;3.90;97.40;;;;;;4332538;33;43643;-45
2021/01/13 05:01:10;;;;;;;;;;;3.90;97.50;;;;;;4332849;33;43252;-45
2021/01/13 05:03:41;;;;;;;;;;;3.90;97.40;;;;;;4332447;33;43818;-45
2021/01/13 05:06:17;;;;;;;;;;;3.90;97.40;;;;;;4332585;33;42790;-46
2021/01/13 05:09:01;;;;;;;;;;;3.90;97.50;;;;;;4332759;33;44466;-45
2021/01/13 05:11:38;;;;;;;;;;;3.90;97.50;;;;;;4332575;33;44491;-45
2021/01/13 05:14:07;;;;;;;;;;;3.90;97.40;;;;;;4319168;33;32648;-45
2021/01/13 05:16:42;;;;;;;;;;;3.90;97.60;;;;;;4331980;33;44319;-45
2021/01/13 05:19:18;;;;;;;;;;;3.90;97.50;;;;;;4319314;33;43957;-45
2021/01/13 05:21:49;;;;;;;;;;;3.90;97.50;;;;;;4319078;33;31734;-45
2021/01/13 05:24:18;;;;;;;;;;;3.90;97.50;;;;;;4332411;33;43469;-45
2021/01/13 05:26:57;;;;;;;;;;;3.90;97.50;;;;;;4332412;33;42934;-45
2021/01/13 05:29:33;;;;;;;;;;;3.90;97.40;;;;;;4332833;33;30638;-45
2021/01/13 05:32:06;;;;;;;;;;;3.90;97.50;;;;;;4319108;33;43466;-45
2021/01/13 05:34:39;;;;;;;;;;;3.90;97.50;;;;;;4319166;33;43251;-45
2021/01/13 05:37:16;;;;;;;;;;;3.90;97.50;;;;;;4318967;33;30658;-45
2021/01/13 05:39:47;;;;;;;;;;;3.90;97.50;;;;;;4332124;33;44194;-45
2021/01/13 05:42:15;;;;;;;;;;;3.90;97.50;;;;;;4332374;33;33606;-45
2021/01/13 05:44:50;;;;;;;;;;;3.90;97.50;;;;;;4318631;33;30624;-45
2021/01/13 05:47:51;;;;;;;;;;;3.90;97.50;;;;;;4318971;33;31701;-45
2021/01/13 05:50:19;;;;;;;;;;;3.80;97.50;;;;;;4321299;33;42171;-45
2021/01/13 05:52:53;;;;;;;;;;;3.90;97.50;;;;;;4331881;33;43303;-46
2021/01/13 05:55:25;;;;;;;;;;;3.90;97.50;;;;;;4318591;33;44404;-45
2021/01/13 05:57:59;;;;;;;;;;;3.90;97.50;;;;;;4330753;33;43929;-45
2021/01/13 06:00:30;;;;;;;;;;;3.90;97.60;;;;;;4319924;33;20400;-45
2021/01/13 06:03:02;;;;;;;;;;;3.90;97.60;;;;;;4315858;33;29768;-45
2021/01/13 06:05:30;;;;;;;;;;;3.80;97.60;;;;;;4317552;33;43665;-45
2021/01/13 06:08:00;;;;;;;;;;;3.90;97.60;;;;;;4327966;33;43157;-45
2021/01/13 06:10:32;;;;;;;;;;;3.90;97.60;;;;;;4328148;33;43125;-45
2021/01/13 06:13:00;;;;;;;;;;;3.80;97.40;;;;;;4327947;33;44446;-45
2021/01/13 06:15:28;;;;;;;;;;;3.80;97.40;;;;;;4317063;33;44427;-45
2021/01/13 06:17:56;;;;;;;;;;;3.80;97.40;;;;;;4317090;33;44503;-45
2021/01/13 06:20:23;;;;;;;;;;;3.80;97.40;;;;;;4315729;33;30783;-46
2021/01/13 06:22:53;;;;;;;;;;;3.80;97.50;;;;;;4316643;33;42970;-46
2021/01/13 06:25:24;;;;;;;;;;;3.80;97.50;;;;;;4316899;33;20054;-47
2021/01/13 06:28:04;;;;;;;;;;;3.80;97.50;;;;;;4315919;33;30677;-48
2021/01/13 06:30:32;;;;;;;;;;;3.70;97.50;;;;;;4316013;33;32676;-46
2021/01/13 06:33:16;;;;;;;;;;;3.80;97.60;;;;;;4316823;33;43314;-47
2021/01/13 06:35:43;;;;;;;;;;;3.80;97.60;;;;;;4316416;33;44492;-47
2021/01/13 06:38:15;;;;;;;;;;;3.80;97.50;;;;;;4316524;33;44547;-45
2021/01/13 06:40:43;;;;;;;;;;;3.80;97.60;;;;;;4328146;33;30937;-45
2021/01/13 06:43:13;;;;;;;;;;;3.80;97.50;;;;;;4316240;33;42216;-45
2021/01/13 06:45:40;;;;;;;;;;;3.80;97.50;;;;;;4328167;33;29946;-45
2021/01/13 06:48:07;;;;;;;;;;;3.80;97.60;;;;;;4316330;33;44288;-47
2021/01/13 06:50:36;;;;;;;;;;;3.80;97.60;;;;;;4316774;33;30312;-45
2021/01/13 06:53:10;;;;;;;;;;;3.80;97.50;;;;;;4316522;33;43017;-46
2021/01/13 06:55:38;;;;;;;;;;;3.80;97.60;;;;;;4328929;33;20022;-48
2021/01/13 06:58:10;;;;;;;;;;;3.80;97.60;;;;;;4316221;33;40582;-47
2021/01/13 07:00:37;;;;;;;;;;;3.70;97.60;;;;;;4315401;33;31596;-48
2021/01/13 07:03:19;;;;;;;;;;;3.80;97.60;;;;;;4324373;33;43407;-46
2021/01/13 07:05:53;;;;;;;;;;;3.80;97.70;;;;;;4332093;33;20079;-46
2021/01/13 07:08:20;;;;;;;;;;;3.80;97.60;;;;;;4330952;33;31925;-45
2021/01/13 07:10:47;;;;;;;;;;;3.80;97.60;;;;;;4317659;33;29335;-45
2021/01/13 07:13:18;;;;;;;;;;;3.80;97.60;;;;;;4317679;33;31230;-45
2021/01/13 07:15:45;;;;;;;;;;;3.70;97.60;;;;;;4317060;33;30541;-45
2021/01/13 07:18:18;;;;;;;;;;;3.70;97.70;;;;;;4317766;33;32064;-45
2021/01/13 07:20:48;;;;;;;;;;;3.70;97.60;;;;;;4317471;33;42178;-45
2021/01/13 07:23:16;;;;;;;;;;;3.80;97.60;;;;;;4318260;33;29735;-45
2021/01/13 07:25:50;;;;;;;;;;;3.70;97.60;;;;;;4330885;33;42946;-45
2021/01/13 07:28:38;;;;;;;;;;;3.80;97.70;;;;;;4319805;33;29344;-46
2021/01/13 07:31:07;;;;;;;;;;;3.70;97.60;;;;;;4331181;33;31408;-45
2021/01/13 07:33:41;;;;;;;;;;;3.70;97.50;;;;;;4305420;33;31213;-45
2021/01/13 07:36:12;;;;;;;;;;;3.70;97.50;;;;;;4305445;33;32214;-45
2021/01/13 07:38:43;;;;;;;;;;;3.70;97.60;;;;;;4330456;33;43286;-45
2021/01/13 07:41:19;;;;;;;;;;;3.70;97.60;;;;;;4330580;33;43518;-45
2021/01/13 07:44:01;;;;;;;;;;;3.70;97.60;;;;;;4317289;33;31915;-45
2021/01/13 07:46:33;;;;;;;;;;;3.70;97.60;;;;;;4329637;33;42199;-45
2021/01/13 07:49:16;;;;;;;;;;;3.70;97.60;;;;;;4329502;33;43280;-45
2021/01/13 07:51:51;;;;;;;;;;;3.70;97.60;;;;;;4330620;33;44444;-45
2021/01/13 07:54:27;;;;;;;;;;;3.70;97.60;;;;;;4317161;33;33586;-45
2021/01/13 07:56:59;;;;;;;;;;;3.70;97.50;;;;;;4317321;33;32618;-47
2021/01/13 07:59:35;;;;;;;;;;;3.70;97.60;;;;;;4329610;33;30645;-45
2021/01/13 08:02:08;;;;;;;;;;;3.70;97.70;;;;;;4329328;33;44422;-45
2021/01/13 08:04:47;;;;;;;;;;;3.70;97.70;;;;;;4330151;33;44531;-45
2021/01/13 08:07:16;;;;;;;;;;;3.70;97.50;;;;;;4330591;33;43295;-45
2021/01/13 08:09:48;;;;;;;;;;;3.70;97.90;;;;;;4330470;33;20005;-45
2021/01/13 08:12:33;;;;;;;;;;;3.70;97.60;;;;;;4317555;33;31704;-45
2021/01/13 08:15:03;;;;;;;;;;;3.70;97.60;;;;;;4330320;33;42081;-46
2021/01/13 08:17:44;;;;;;;;;;;3.70;97.70;;;;;;4329378;33;43409;-45
2021/01/13 08:20:21;;;;;;;;;;;3.70;97.60;;;;;;4317784;33;31696;-45
2021/01/13 08:23:07;;;;;;;;;;;3.70;97.60;;;;;;4329289;33;42288;-45
2021/01/13 08:25:42;;;;;;;;;;;3.70;97.60;;;;;;4330435;33;43168;-44
2021/01/13 08:28:13;;;;;;;;;;;3.70;97.50;;;;;;4319840;33;32757;-45
2021/01/13 08:30:44;;;;;;;;;;;3.70;97.50;;;;;;4332619;33;30618;-45
2021/01/13 08:33:21;;;;;;;;;;;3.60;97.50;;;;;;4333224;33;43092;-45
2021/01/13 08:36:00;;;;;;;;;;;3.60;97.50;;;;;;4319789;33;43939;-45
2021/01/13 08:38:27;;;;;;;;;;;3.70;97.60;;;;;;4333049;33;44352;-47
2021/01/13 08:41:14;;;;;;;;;;;3.60;97.50;;;;;;4333342;33;30132;-45
2021/01/13 08:44:00;;;;;;;;;;;3.70;97.60;;;;;;4333253;33;32076;-45
2021/01/13 08:46:38;;;;;;;;;;;3.60;97.50;;;;;;4333326;33;30790;-45
2021/01/13 08:49:05;;;;;;;;;;;3.60;97.60;;;;;;4333036;33;42990;-45
2021/01/13 08:51:39;;;;;;;;;;;3.70;97.50;;;;;;4331396;33;43245;-45
2021/01/13 08:54:32;;;;;;;;;;;3.60;97.50;;;;;;4319673;33;43457;-45
2021/01/13 08:56:59;;;;;;;;;;;3.60;97.50;;;;;;4330726;33;32131;-45
2021/01/13 08:59:34;;;;;;;;;;;3.60;97.60;;;;;;4319721;33;43803;-45
2021/01/13 09:02:03;;;;;;;;;;;3.60;97.60;;;;;;4333608;33;20009;-45
2021/01/13 09:04:50;;;;;;;;;;;3.60;97.60;;;;;;4333149;33;30726;-45
2021/01/13 09:07:18;;;;;;;;;;;3.60;97.50;;;;;;4319869;33;33436;-45
2021/01/13 09:10:05;;;;;;;;;;;3.60;97.50;;;;;;4331215;33;44372;-45
2021/01/13 09:12:39;;;;;;;;;;;3.60;97.60;;;;;;4332666;33;44165;-45
2021/01/13 09:15:13;;;;;;;;;;;3.70;97.60;;;;;;4332479;33;44507;-45
2021/01/13 09:17:52;;;;;;;;;;;3.70;97.60;;;;;;4332754;33;29402;-45
2021/01/13 09:20:21;;;;;;;;;;;3.60;97.60;;;;;;4331946;33;31881;-45
2021/01/13 09:23:08;;;;;;;;;;;3.70;97.70;;;;;;4333680;33;20041;-45
2021/01/13 09:25:45;;;;;;;;;;;3.70;97.60;;;;;;4319662;33;32221;-45
2021/01/13 09:28:17;;;;;;;;;;;3.70;97.60;;;;;;4332957;33;32195;-45
2021/01/13 09:30:48;;;;;;;;;;;3.70;97.60;;;;;;4332161;33;44394;-45
2021/01/13 09:33:22;;;;;;;;;;;3.70;97.50;;;;;;4332160;33;40521;-45
2021/01/13 09:35:58;;;;;;;;;;;3.70;97.60;;;;;;4318893;33;30691;-46
2021/01/13 09:38:26;;;;;;;;;;;3.70;97.50;;;;;;4331488;33;43510;-45
2021/01/13 09:41:01;;;;;;;;;;;3.70;97.50;;;;;;4331804;33;42372;-46
2021/01/13 09:43:44;;;;;;;;;;;3.70;97.50;;;;;;4319738;33;32914;-46
2021/01/13 09:46:21;;;;;;;;;;;3.60;97.50;;;;;;4318705;33;44316;-47
2021/01/13 09:48:58;;;;;;;;;;;3.70;97.50;;;;;;4332460;33;30932;-45
2021/01/13 09:51:26;;;;;;;;;;;3.70;97.50;;;;;;4331976;33;44331;-46
2021/01/13 09:53:54;;;;;;;;;;;3.70;97.50;;;;;;4331517;33;42129;-46
2021/01/13 09:56:23;;;;;;;;;;;3.70;97.50;;;;;;4332737;33;20331;-46
2021/01/13 09:58:51;;;;;;;;;;;3.70;97.50;;;;;;4332324;33;29904;-47
2021/01/13 10:01:22;;;;;;;;;;;3.70;97.40;;;;;;4318994;33;30768;-48
2021/01/13 10:03:55;;;;;;;;;;;3.70;97.40;;;;;;4331593;33;42159;-45
2021/01/13 10:06:29;;;;;;;;;;;3.70;97.50;;;;;;4331923;33;43065;-45
2021/01/13 10:09:16;;;;;;;;;;;3.70;97.50;;;;;;4331430;33;43544;-45
2021/01/13 10:11:43;;;;;;;;;;;3.70;97.50;;;;;;4331583;33;42329;-45
2021/01/13 10:14:13;;;;;;;;;;;3.70;97.50;;;;;;4335490;33;42123;-45
2021/01/13 10:16:41;;;;;;;;;;;3.70;97.50;;;;;;4325487;33;44669;-49
2021/01/13 10:19:09;;;;;;;;;;;3.70;97.40;;;;;;4329951;33;43463;-47
2021/01/13 10:21:37;;;;;;;;;;;3.70;97.50;;;;;;4318014;33;43118;-49
2021/01/13 10:24:08;;;;;;;;;;;3.70;97.50;;;;;;4331024;33;43730;-53
2021/01/13 10:26:36;;;;;;;;;;;3.70;97.40;;;;;;4331571;33;29998;-46
2021/01/13 10:29:04;;;;;;;;;;;3.70;97.50;;;;;;4329879;33;43291;-45
2021/01/13 10:31:32;;;;;;;;;;;3.70;97.40;;;;;;4330931;33;42349;-48
2021/01/13 10:33:59;;;;;;;;;;;3.80;97.40;;;;;;4318035;33;33934;-46
2021/01/13 10:36:34;;;;;;;;;;;3.80;97.50;;;;;;4331053;33;29704;-45
2021/01/13 10:39:21;;;;;;;;;;;3.80;97.40;;;;;;4331318;33;20502;-49
2021/01/13 10:41:51;;;;;;;;;;;3.80;97.40;;;;;;4330876;33;29729;-45
2021/01/13 10:44:29;;;;;;;;;;;3.80;97.40;;;;;;4317935;33;32557;-45
2021/01/13 10:46:56;;;;;;;;;;;3.80;97.40;;;;;;4330050;33;44169;-45
2021/01/13 10:49:25;;;;;;;;;;;3.80;97.40;;;;;;4330991;33;42860;-48
2021/01/13 10:51:57;;;;;;;;;;;3.80;97.30;;;;;;4315990;33;32950;-46
2021/01/13 10:54:25;;;;;;;;;;;3.80;97.30;;;;;;4317684;33;30661;-45
2021/01/13 10:56:54;;;;;;;;;;;3.80;97.30;;;;;;4330678;33;44198;-45
2021/01/13 10:59:23;;;;;;;;;;;3.80;97.30;;;;;;4317862;33;31859;-46
2021/01/13 11:01:51;;;;;;;;;;;3.80;97.40;;;;;;4330558;33;42141;-46
2021/01/13 11:04:26;;;;;;;;;;;3.80;97.40;;;;;;4330822;33;29917;-45
2021/01/13 11:07:00;;;;;;;;;;;3.90;97.50;;;;;;4317532;33;31569;-45
2021/01/13 11:09:27;;;;;;;;;;;3.90;97.40;;;;;;4317668;33;30738;-45
2021/01/13 11:11:55;;;;;;;;;;;3.90;97.50;;;;;;4330494;33;42399;-45
2021/01/13 11:14:28;;;;;;;;;;;3.90;97.50;;;;;;4330291;33;43914;-46
2021/01/13 11:16:59;;;;;;;;;;;4.00;97.60;;;;;;4329593;33;43209;-46
2021/01/13 11:19:26;;;;;;;;;;;4.00;97.60;;;;;;4317521;33;32349;-46
2021/01/13 11:21:55;;;;;;;;;;;4.10;97.60;;;;;;4331271;33;44214;-47
2021/01/13 11:24:34;;;;;;;;;;;4.10;97.60;;;;;;4318179;33;30779;-47
2021/01/13 11:27:02;;;;;;;;;;;4.10;97.50;;;;;;4330206;33;42284;-47
2021/01/13 11:29:30;;;;;;;;;;;4.20;97.50;;;;;;4330161;33;42996;-46
2021/01/13 11:31:58;;;;;;;;;;;4.20;97.50;;;;;;4330593;33;43748;-47
2021/01/13 11:34:26;;;;;;;;;;;4.20;97.40;;;;;;4330621;33;43033;-46
2021/01/13 11:37:08;;;;;;;;;;;4.30;97.40;;;;;;4329314;33;43145;-46
2021/01/13 11:39:42;;;;;;;;;;;4.30;97.40;;;;;;4330097;33;42329;-47
2021/01/13 11:42:34;;;;;;;;;;;4.30;97.30;;;;;;4329538;33;43287;-46
2021/01/13 11:45:19;;;;;;;;;;;4.40;97.30;;;;;;4326623;33;31915;-46
2021/01/13 11:47:55;;;;;;;;;;;4.40;97.20;;;;;;4329978;33;43114;-46
2021/01/13 11:50:24;;;;;;;;;;;4.40;97.20;;;;;;4317121;33;31600;-46
2021/01/13 11:52:59;;;;;;;;;;;4.40;97.20;;;;;;4330333;33;20430;-46
2021/01/13 11:55:29;;;;;;;;;;;4.40;97.10;;;;;;4317288;33;34268;-46
2021/01/13 11:57:56;;;;;;;;;;;4.50;97.20;;;;;;4317001;33;32673;-46
2021/01/13 12:00:27;;;;;;;;;;;4.50;97.10;;;;;;4330523;33;39544;-47
2021/01/13 12:02:56;;;;;;;;;;;4.50;97.10;;;;;;4331670;33;42202;-46
2021/01/13 12:05:23;;;;;;;;;;;4.50;97.10;;;;;;4332266;33;44198;-46
2021/01/13 12:08:03;;;;;;;;;;;4.60;97.10;;;;;;4334203;33;20042;-47
2021/01/13 12:10:32;;;;;;;;;;;4.60;97.10;;;;;;4333501;33;30169;-46
2021/01/13 12:13:12;;;;;;;;;;;4.60;97.10;;;;;;4332728;33;42300;-46
2021/01/13 12:15:52;;;;;;;;;;;4.60;97.00;;;;;;4333900;33;20008;-47
2021/01/13 12:18:19;;;;;;;;;;;4.60;97.00;;;;;;4331885;33;44357;-47
2021/01/13 12:20:47;;;;;;;;;;;4.60;97.00;;;;;;4332643;33;44127;-48
2021/01/13 12:23:19;;;;;;;;;;;4.60;97.00;;;;;;4319702;33;31428;-46
2021/01/13 12:25:46;;;;;;;;;;;4.70;97.00;;;;;;4331502;33;42965;-47
2021/01/13 12:28:15;;;;;;;;;;;4.70;97.00;;;;;;4333036;33;43235;-47
2021/01/13 12:30:52;;;;;;;;;;;4.70;96.90;;;;;;4319500;33;33106;-48
2021/01/13 12:33:20;;;;;;;;;;;4.70;97.00;;;;;;4308103;33;30554;-46
2021/01/13 12:35:47;;;;;;;;;;;4.70;96.90;;;;;;4332813;33;43435;-46
2021/01/13 12:38:14;;;;;;;;;;;4.70;96.90;;;;;;4320102;33;30853;-48
2021/01/13 12:40:41;;;;;;;;;;;4.70;96.90;;;;;;4332410;33;42130;-46
2021/01/13 12:43:11;;;;;;;;;;;4.70;97.00;;;;;;4332828;33;44263;-47
2021/01/13 12:45:39;;;;;;;;;;;4.70;96.90;;;;;;4332521;33;43251;-48
2021/01/13 12:48:06;;;;;;;;;;;4.70;96.90;;;;;;4332736;33;43267;-49
2021/01/13 12:50:32;;;;;;;;;;;4.70;96.90;;;;;;4332709;33;42796;-47
2021/01/13 12:52:59;;;;;;;;;;;4.70;96.90;;;;;;4332197;33;42363;-48
2021/01/13 12:55:26;;;;;;;;;;;4.80;97.00;;;;;;4332615;33;43168;-46
2021/01/13 12:57:55;;;;;;;;;;;4.70;96.90;;;;;;4332486;33;30016;-48
2021/01/13 13:00:23;;;;;;;;;;;4.70;96.90;;;;;;4332225;33;40813;-46
2021/01/13 13:02:53;;;;;;;;;;;4.70;96.90;;;;;;4331966;33;42326;-46
2021/01/13 13:05:20;;;;;;;;;;;4.70;96.90;;;;;;4330420;33;43209;-46
2021/01/13 13:07:47;;;;;;;;;;;4.70;96.90;;;;;;4332518;33;44194;-46
2021/01/13 13:10:14;;;;;;;;;;;4.70;96.90;;;;;;4333386;33;20016;-48
2021/01/13 13:12:41;;;;;;;;;;;4.70;97.00;;;;;;4330685;33;44216;-51
2021/01/13 13:15:08;;;;;;;;;;;4.70;96.90;;;;;;4330707;33;42035;-49
2021/01/13 13:17:41;;;;;;;;;;;4.70;97.00;;;;;;4332246;33;43931;-49
2021/01/13 13:20:08;;;;;;;;;;;4.70;96.90;;;;;;4319399;33;31600;-51
2021/01/13 13:22:35;;;;;;;;;;;4.70;96.90;;;;;;4332037;33;44226;-46
2021/01/13 13:25:03;;;;;;;;;;;4.70;96.90;;;;;;4332074;33;42227;-46
2021/01/13 13:27:33;;;;;;;;;;;4.70;96.90;;;;;;4331053;33;42316;-46
2021/01/13 13:30:01;;;;;;;;;;;4.70;97.00;;;;;;4332360;33;43172;-46
2021/01/13 13:32:34;;;;;;;;;;;4.70;97.00;;;;;;4332226;33;42341;-46
2021/01/13 13:35:00;;;;;;;;;;;4.70;97.00;;;;;;4331840;33;43524;-46
2021/01/13 13:37:28;;;;;;;;;;;4.70;97.00;;;;;;4330756;33;43555;-46
2021/01/13 13:39:54;;;;;;;;;;;4.70;97.00;;;;;;4332053;33;43801;-46
2021/01/13 13:42:37;;;;;;;;;;;4.70;97.40;;;;;;4319044;33;30574;-47
2021/01/13 13:45:05;;;;;;;;;;;4.70;97.10;;;;;;4332106;33;44211;-46
2021/01/13 13:47:34;;;;;;;;;;;4.70;97.00;;;;;;4318736;33;30468;-45
2021/01/13 13:50:03;;;;;;;;;;;4.70;97.10;;;;;;4330943;33;42233;-46
2021/01/13 13:52:30;;;;;;;;;;;4.70;97.10;;;;;;4331480;33;43204;-46
2021/01/13 13:54:58;;;;;;;;;;;4.70;97.10;;;;;;4331707;33;42054;-46
2021/01/13 13:57:24;;;;;;;;;;;4.70;97.10;;;;;;4331567;33;44360;-46
2021/01/13 13:59:51;;;;;;;;;;;4.70;97.00;;;;;;4331684;33;42439;-46
2021/01/13 14:02:23;;;;;;;;;;;4.70;97.10;;;;;;4331228;33;44082;-46
2021/01/13 14:04:50;;;;;;;;;;;4.70;97.00;;;;;;4331185;33;29841;-45
2021/01/13 14:07:17;;;;;;;;;;;4.70;97.10;;;;;;4331557;33;30349;-47
2021/01/13 14:09:44;;;;;;;;;;;4.60;97.00;;;;;;4331653;33;42948;-46
2021/01/13 14:12:11;;;;;;;;;;;4.60;97.10;;;;;;4331092;33;43176;-46
2021/01/13 14:14:39;;;;;;;;;;;4.60;97.10;;;;;;4331060;33;44251;-45
2021/01/13 14:17:06;;;;;;;;;;;4.70;97.10;;;;;;4329969;33;43918;-45
2021/01/13 14:19:32;;;;;;;;;;;4.70;97.10;;;;;;4331153;33;43834;-47
2021/01/13 14:21:59;;;;;;;;;;;4.60;97.10;;;;;;4330942;33;44348;-46
2021/01/13 14:24:26;;;;;;;;;;;4.60;97.20;;;;;;4331885;33;20002;-46
2021/01/13 14:26:59;;;;;;;;;;;4.60;97.20;;;;;;4331276;33;42241;-46
2021/01/13 14:29:26;;;;;;;;;;;4.70;97.30;;;;;;4330202;33;42983;-45
2021/01/13 14:31:53;;;;;;;;;;;4.60;97.20;;;;;;4330784;33;43047;-48
2021/01/13 14:34:20;;;;;;;;;;;4.70;97.30;;;;;;4331232;33;30479;-45
2021/01/13 14:36:55;;;;;;;;;;;4.60;97.30;;;;;;4332201;33;20002;-46
2021/01/13 14:39:22;;;;;;;;;;;4.60;97.30;;;;;;4330585;33;44361;-47
2021/01/13 14:41:49;;;;;;;;;;;4.60;97.30;;;;;;4331339;33;43270;-47
2021/01/13 14:44:16;;;;;;;;;;;4.60;97.30;;;;;;4330652;33;43738;-45
2021/01/13 14:46:43;;;;;;;;;;;4.60;97.40;;;;;;4330813;33;42195;-45
2021/01/13 14:49:10;;;;;;;;;;;4.60;97.40;;;;;;4331532;33;29630;-49
2021/01/13 14:51:38;;;;;;;;;;;4.60;97.40;;;;;;4330911;33;43450;-46
2021/01/13 14:54:07;;;;;;;;;;;4.60;97.40;;;;;;4330881;33;43622;-45
2021/01/13 14:56:34;;;;;;;;;;;4.60;97.40;;;;;;4317861;33;44285;-45